Weather reports worldwide

Advertisment
Adra, Spain (8486): temperature & dewpoint: 29.06.2020 13:00:00 - 05.07.2020 13:00:00 (CEST)Adra, Spain (8486): wind speed & gusts: 29.06.2020 13:00:00 - 05.07.2020 13:00:00 (CEST)Adra, Spain (8486): wind direction: 29.06.2020 13:00:00 - 05.07.2020 13:00:00 (CEST)Adra, Spain (8486): reduced air pressure: 29.06.2020 13:00:00 - 05.07.2020 13:00:00 (CEST)
Date & Time tt [°C] td [°C] ff [km/h] ff [kn] fx [km/h] fx [kn] dd ppp [hPa]
05.07.2020 13:00:00 - - - - - - - -
05.07.2020 12:00:00 27,4 16,6 7 4 11 6 WSW 1018,4
05.07.2020 11:00:00 28,8 15,7 3 1 6 3 SW 1017,9
05.07.2020 10:00:00 27,6 16,2 2 1 6 3 SW 1018,2
05.07.2020 09:00:00 27,1 17,9 1 0 4 2 S 1017,8
05.07.2020 08:00:00 23,7 16,5 3 1 5 3 W 1018,5
05.07.2020 07:00:00 23,2 14,2 3 1 9 5 E 1018,3
05.07.2020 06:00:00 21,8 19,3 3 2 6 3 N 1018,5
05.07.2020 05:00:00 22,4 19,9 5 3 11 6 W 1018,5
05.07.2020 04:00:00 22,5 20,1 2 1 10 6 N 1018,7
05.07.2020 03:00:00 22,4 20,5 1 1 9 5 SSW 1019,4
05.07.2020 02:00:00 22,4 20,7 6 3 8 5 W 1019,9
05.07.2020 01:00:00 22,8 21,3 1 1 7 4 SSW 1019,8
05.07.2020 00:00:00 22,8 21,3 6 3 10 6 W 1020,0
04.07.2020 23:00:00 23,1 21,2 5 3 10 6 SW 1019,8
04.07.2020 22:00:00 23,6 20,7 6 3 11 6 SW 1019,0
04.07.2020 21:00:00 24,7 19,8 5 3 11 6 SW 1018,5
04.07.2020 20:00:00 25,5 19,1 4 2 9 5 SSE 1017,8
04.07.2020 19:00:00 26,1 19,5 4 2 11 6 SSE 1017,9
04.07.2020 18:00:00 27,3 19,6 2 1 11 6 SSW 1017,9
04.07.2020 17:00:00 26,4 19,6 4 2 9 5 SSE 1018,4
04.07.2020 16:00:00 26,0 20,3 5 3 10 5 SSE 1018,8
04.07.2020 15:00:00 27,0 20,8 2 1 12 7 SSE 1019,2
04.07.2020 14:00:00 26,5 20,1 3 2 10 5 SE 1020,1
04.07.2020 13:00:00 26,7 20,5 3 2 9 5 S 1019,8
04.07.2020 12:00:00 25,9 21,6 1 1 12 6 SSE 1020,2
04.07.2020 11:00:00 25,4 20,9 1 1 10 5 S 1020,5
04.07.2020 10:00:00 26,6 20,2 3 2 8 4 SSW 1019,7
04.07.2020 09:00:00 24,0 20,7 6 3 11 6 W 1020,0
04.07.2020 08:00:00 22,5 20,8 6 4 9 5 W 1019,8
04.07.2020 07:00:00 21,8 20,8 4 2 5 3 WSW 1019,7
04.07.2020 06:00:00 22,0 21,0 1 0 4 2 SSE 1019,0
04.07.2020 05:00:00 22,5 21,6 2 1 6 3 WSW 1018,8
04.07.2020 04:00:00 22,7 21,8 1 1 6 3 ESE 1019,1
04.07.2020 03:00:00 22,4 21,6 3 2 5 3 SE 1019,6
04.07.2020 02:00:00 23,2 22,0 1 0 6 4 SW 1019,7
04.07.2020 01:00:00 23,8 22,6 2 1 12 6 N 1020,2
04.07.2020 00:00:00 23,9 22,5 3 2 9 5 SE 1020,2
03.07.2020 23:00:00 24,4 21,9 3 2 9 5 E 1019,0
03.07.2020 22:00:00 25,0 21,1 3 2 10 6 E 1017,9
03.07.2020 21:00:00 25,6 21,1 3 2 14 8 ESE 1016,9
03.07.2020 20:00:00 25,6 21,1 6 4 10 5 SE 1016,3
03.07.2020 19:00:00 26,5 20,8 5 3 10 5 SSE 1016,2
03.07.2020 18:00:00 26,8 21,1 3 2 9 5 SE 1016,1
03.07.2020 17:00:00 27,2 21,5 3 1 10 6 E 1016,5
03.07.2020 16:00:00 27,7 21,5 3 2 11 6 S 1016,5
03.07.2020 15:00:00 26,7 21,3 2 1 10 6 S 1016,8
03.07.2020 14:00:00 26,9 21,4 2 1 11 6 SSE 1017,1
03.07.2020 13:00:00 25,9 20,9 1 1 15 8 ESE 1017,5
03.07.2020 12:00:00 26,2 21,6 1 1 13 7 NE 1016,7
03.07.2020 11:00:00 24,3 20,4 1 1 14 8 NNE 1016,5
03.07.2020 10:00:00 22,7 19,6 5 3 18 10 E 1016,4
03.07.2020 09:00:00 23,6 20,3 10 6 23 12 E 1015,6
03.07.2020 08:00:00 24,4 17,9 8 4 22 12 E 1014,7
03.07.2020 07:00:00 23,1 18,8 8 4 19 10 ENE 1014,4
03.07.2020 06:00:00 20,9 18,5 2 1 9 5 E 1014,1
03.07.2020 05:00:00 21,4 17,6 7 4 11 6 ESE 1013,7
03.07.2020 04:00:00 21,7 18,7 4 2 11 6 E 1013,9
03.07.2020 03:00:00 21,7 18,7 5 3 10 5 E 1014,0
03.07.2020 02:00:00 21,5 18,5 1 0 8 4 S 1014,4
03.07.2020 01:00:00 22,0 18,8 6 3 16 9 E 1014,8
03.07.2020 00:00:00 22,4 18,4 10 5 16 9 W 1013,8
02.07.2020 23:00:00 22,7 18,2 9 5 28 15 W 1012,8
02.07.2020 22:00:00 23,7 17,5 18 10 31 17 W 1011,8
02.07.2020 21:00:00 24,3 18,0 21 11 38 20 W 1011,0
02.07.2020 20:00:00 24,9 17,9 22 12 36 19 WSW 1010,4
02.07.2020 19:00:00 25,9 17,0 18 10 40 22 SW 1010,6
02.07.2020 18:00:00 27,9 15,9 20 11 35 19 WSW 1010,5
02.07.2020 17:00:00 26,5 18,1 15 8 30 16 W 1010,9
02.07.2020 16:00:00 25,3 18,8 17 9 29 16 WSW 1011,7
02.07.2020 15:00:00 25,7 18,8 11 6 26 14 SW 1012,2
02.07.2020 14:00:00 24,3 20,0 14 7 26 14 WSW 1013,0
02.07.2020 13:00:00 23,6 20,3 15 8 24 13 WSW 1013,2
02.07.2020 12:00:00 24,5 20,2 9 5 16 8 SW 1012,9
02.07.2020 11:00:00 25,1 20,1 4 2 11 6 SSW 1012,6
02.07.2020 10:00:00 25,2 20,5 3 2 9 5 SSW 1012,5
02.07.2020 09:00:00 22,9 20,5 3 1 8 5 SE 1012,8
02.07.2020 08:00:00 21,9 19,6 3 1 9 5 SE 1012,7
02.07.2020 07:00:00 22,4 19,0 5 3 12 7 E 1012,6
02.07.2020 06:00:00 23,1 18,0 3 1 9 5 WSW 1011,7
02.07.2020 05:00:00 21,4 18,4 2 1 13 7 NNW 1011,7
02.07.2020 04:00:00 22,1 19,1 7 4 11 6 W 1012,0
02.07.2020 03:00:00 21,5 18,7 2 1 7 4 N 1012,3
02.07.2020 02:00:00 22,4 19,0 4 2 11 6 WSW 1012,8
02.07.2020 01:00:00 22,5 20,1 2 1 14 8 W 1013,2
02.07.2020 00:00:00 22,6 20,3 9 5 16 8 W 1013,0
01.07.2020 23:00:00 22,8 20,0 5 3 19 11 WSW 1012,1
01.07.2020 22:00:00 23,2 18,5 16 9 23 13 WSW 1011,6
01.07.2020 21:00:00 24,2 17,9 14 7 32 17 WSW 1011,0
01.07.2020 20:00:00 25,0 17,5 22 12 34 18 W 1010,3
01.07.2020 19:00:00 26,8 15,8 21 12 32 18 WSW 1010,3
01.07.2020 18:00:00 24,9 18,1 18 10 29 16 W 1010,8
01.07.2020 17:00:00 24,5 18,7 18 10 29 16 WSW 1011,1
01.07.2020 16:00:00 24,2 20,1 16 8 27 15 W 1011,8
01.07.2020 15:00:00 23,4 20,3 16 8 24 13 WSW 1012,5
01.07.2020 14:00:00 23,5 20,7 16 8 25 14 WSW 1013,3
01.07.2020 13:00:00 23,8 19,7 11 6 20 11 SW 1013,3
01.07.2020 12:00:00 23,9 20,5 10 5 20 11 SW 1013,5
01.07.2020 11:00:00 22,7 19,6 11 6 21 11 WSW 1013,3
01.07.2020 10:00:00 22,3 19,8 12 6 37 20 SW 1013,5
01.07.2020 09:00:00 21,4 19,8 15 8 24 13 W 1013,6
01.07.2020 08:00:00 20,9 20,1 14 8 23 12 W 1013,5
01.07.2020 07:00:00 21,0 20,0 14 7 21 11 W 1013,0
01.07.2020 06:00:00 21,5 20,3 8 4 12 7 W 1012,4
01.07.2020 05:00:00 21,5 20,3 4 2 11 6 WSW 1012,3
01.07.2020 04:00:00 21,5 20,3 8 4 11 6 W 1012,5
01.07.2020 03:00:00 22,2 20,9 3 2 8 4 W 1012,8
01.07.2020 02:00:00 22,3 20,9 4 2 15 8 WSW 1013,5
01.07.2020 01:00:00 22,4 20,9 7 4 15 8 W 1013,7
01.07.2020 00:00:00 22,8 20,9 10 5 17 9 W 1013,6
30.06.2020 23:00:00 22,9 21,0 9 5 16 9 W 1013,5
30.06.2020 22:00:00 23,1 21,0 10 5 20 11 W 1012,9
30.06.2020 21:00:00 23,3 21,0 13 7 23 12 W 1012,2
30.06.2020 20:00:00 23,8 20,7 16 8 25 14 W 1011,4
30.06.2020 19:00:00 24,0 20,9 16 8 26 14 W 1011,2
30.06.2020 18:00:00 23,9 21,2 18 10 26 14 W 1011,8
30.06.2020 17:00:00 24,6 20,9 14 7 22 12 W 1011,6
30.06.2020 16:00:00 24,4 20,9 16 9 26 14 WSW 1012,5
30.06.2020 15:00:00 24,9 20,6 14 7 27 15 SW 1012,6
30.06.2020 14:00:00 24,6 20,1 14 7 21 11 W 1013,0
30.06.2020 13:00:00 24,0 19,9 13 7 21 11 WSW 1013,6
30.06.2020 12:00:00 23,7 21,0 12 6 19 10 W 1013,4
30.06.2020 11:00:00 22,6 21,1 11 6 18 10 WSW 1013,4
30.06.2020 10:00:00 22,0 21,2 9 5 15 8 WSW 1013,0
30.06.2020 09:00:00 21,6 21,1 4 2 15 8 WSW 1013,4
30.06.2020 08:00:00 22,0 21,0 11 6 17 9 W 1013,1
30.06.2020 07:00:00 22,3 20,2 1 1 8 5 SSW 1012,1
30.06.2020 06:00:00 21,4 20,4 4 2 22 12 ENE 1012,2
30.06.2020 05:00:00 22,0 21,0 12 7 19 11 W 1012,4
30.06.2020 04:00:00 22,1 21,1 6 3 11 6 W 1012,2
30.06.2020 03:00:00 21,7 20,7 5 3 12 6 W 1012,6
30.06.2020 02:00:00 22,1 21,1 4 2 8 5 W 1013,3
30.06.2020 01:00:00 22,3 21,1 1 0 8 4 SSE 1014,1
30.06.2020 00:00:00 22,6 21,4 2 1 5 3 SSE 1014,7
29.06.2020 23:00:00 22,8 21,4 4 2 5 3 SE 1015,2
29.06.2020 22:00:00 23,1 20,8 1 1 6 4 SSE 1014,7
29.06.2020 21:00:00 24,6 20,7 4 2 12 7 SSW 1014,0
29.06.2020 20:00:00 26,1 21,5 3 1 11 6 SSW 1012,8
29.06.2020 19:00:00 24,5 20,0 7 4 10 5 SSE 1012,6
29.06.2020 18:00:00 27,7 18,7 5 3 15 8 SSW 1012,5
29.06.2020 17:00:00 26,2 18,6 8 5 14 8 SW 1013,9
29.06.2020 16:00:00 28,3 19,3 3 2 12 7 SSW 1013,5
29.06.2020 15:00:00 27,0 19,3 4 2 12 7 SSW 1014,4
29.06.2020 14:00:00 26,7 20,1 4 2 10 6 SSW 1015,3
29.06.2020 13:00:00 24,9 19,5 7 4 10 6 SSE 1016,2

tt = temperature
td = dewpoint
ff = wind speed
fx = gusts
dd = wind direction
ppp = reduced air pressure

Next stations